Time;durP1;ratioP1;P1;durP2;ratioP2;P2;SDS_P1;SDS_P2;PMS_P1;PMS_P2;Temp;Humidity;BMP_temperature;BMP_pressure;BME280_temperature;BME280_humidity;BME280_pressure;Samples;Min_cycle;Max_cycle;Signal;HPM_P1;HPM_P2
2021/01/02 00:00:00;;;;;;;108.32;38.55;;;-1.50;99.90;;;;;;5090991;28;20062;-77
2021/01/02 00:02:41;;;;;;;90.22;34.53;;;-1.50;99.90;;;;;;5090259;28;20027;-77
2021/01/02 00:05:11;;;;;;;92.78;33.63;;;-1.50;99.90;;;;;;5090989;28;20112;-77
2021/01/02 00:07:56;;;;;;;101.60;35.60;;;-1.50;99.90;;;;;;5090316;28;20275;-77
2021/01/02 00:10:26;;;;;;;108.32;36.17;;;-1.50;99.90;;;;;;5090693;28;20085;-77
2021/01/02 00:13:17;;;;;;;107.50;39.20;;;-1.50;99.90;;;;;;5092006;28;20016;-77
2021/01/02 00:15:45;;;;;;;124.80;43.90;;;-1.50;99.90;;;;;;5092244;28;20028;-78
2021/01/02 00:18:45;;;;;;;142.15;39.70;;;-1.50;99.90;;;;;;5078230;28;20025;-77
2021/01/02 00:21:27;;;;;;;129.50;41.92;;;-1.60;99.90;;;;;;5070552;28;20063;-77
2021/01/02 00:24:13;;;;;;;125.55;44.13;;;-1.60;99.90;;;;;;5071331;28;20490;-77
2021/01/02 00:26:46;;;;;;;144.80;41.70;;;-1.70;99.90;;;;;;5070514;28;20028;-77
2021/01/02 00:29:15;;;;;;;133.25;46.78;;;-1.70;99.90;;;;;;5070165;28;20094;-76
2021/01/02 00:32:09;;;;;;;119.72;39.92;;;-1.70;99.90;;;;;;5070557;28;20074;-76
2021/01/02 00:34:38;;;;;;;146.50;45.47;;;-1.80;99.90;;;;;;5071320;28;20033;-76
2021/01/02 00:37:26;;;;;;;173.57;48.13;;;-1.90;99.90;;;;;;5071684;28;20025;-76
2021/01/02 00:39:57;;;;;;;131.50;39.25;;;-1.90;99.90;;;;;;5070359;28;20033;-76
2021/01/02 00:42:25;;;;;;;135.48;39.38;;;-2.00;99.90;;;;;;5071577;28;20028;-76
2021/01/02 00:44:52;;;;;;;114.63;39.05;;;-2.00;99.90;;;;;;5070281;28;20405;-76
2021/01/02 00:47:19;;;;;;;120.35;36.45;;;-2.10;99.90;;;;;;5070341;28;20040;-76
2021/01/02 00:49:48;;;;;;;104.40;35.55;;;-2.20;99.90;;;;;;5073218;28;20072;-76
2021/01/02 00:52:35;;;;;;;114.45;36.10;;;-2.20;99.90;;;;;;5086392;28;20020;-76
2021/01/02 00:55:20;;;;;;;101.95;35.65;;;-2.20;99.90;;;;;;5094183;28;20028;-76
2021/01/02 00:57:49;;;;;;;114.10;39.58;;;-2.30;99.90;;;;;;5093807;28;20032;-76
2021/01/02 01:00:17;;;;;;;88.75;35.88;;;-2.30;99.90;;;;;;5094906;28;20032;-76
2021/01/02 01:03:03;;;;;;;92.45;35.65;;;-2.30;99.90;;;;;;5094139;28;20050;-76
2021/01/02 01:05:38;;;;;;;97.30;36.95;;;-2.40;99.90;;;;;;5093390;28;20441;-76
2021/01/02 01:08:06;;;;;;;128.50;42.00;;;-2.40;99.90;;;;;;5094977;28;20394;-76
2021/01/02 01:10:36;;;;;;;104.72;38.60;;;-2.50;99.90;;;;;;5093467;28;20036;-76
2021/01/02 01:13:08;;;;;;;108.00;41.47;;;-2.50;99.90;;;;;;5094714;28;20028;-76
2021/01/02 01:15:34;;;;;;;108.13;40.13;;;-2.70;99.90;;;;;;5093842;28;20077;-76
2021/01/02 01:18:05;;;;;;;95.07;40.33;;;-2.80;99.90;;;;;;5086910;28;20017;-76
2021/01/02 01:20:31;;;;;;;110.03;38.65;;;-2.80;99.90;;;;;;5080961;28;20028;-76
2021/01/02 01:23:06;;;;;;;110.65;35.30;;;-2.90;99.90;;;;;;5080697;28;20021;-76
2021/01/02 01:25:56;;;;;;;100.68;34.40;;;-3.00;99.90;;;;;;5087456;28;20034;-76
2021/01/02 01:28:24;;;;;;;85.50;33.38;;;-3.10;99.90;;;;;;5073939;28;20032;-76
2021/01/02 01:30:53;;;;;;;87.18;33.72;;;-3.10;99.90;;;;;;5076070;28;20021;-76
2021/01/02 01:33:27;;;;;;;90.93;40.10;;;-3.10;99.90;;;;;;5094886;28;20030;-76
2021/01/02 01:36:01;;;;;;;87.05;36.70;;;-3.10;99.90;;;;;;5086318;28;20021;-76
2021/01/02 01:38:29;;;;;;;79.20;32.05;;;-3.00;99.90;;;;;;5073239;28;20389;-76
2021/01/02 01:41:16;;;;;;;77.05;30.50;;;-3.00;99.90;;;;;;5073116;28;20032;-76
2021/01/02 01:44:03;;;;;;;73.82;29.80;;;-3.00;99.90;;;;;;5072739;28;20021;-76
2021/01/02 01:46:33;;;;;;;77.78;30.83;;;-3.00;99.90;;;;;;5073059;28;20024;-76
2021/01/02 01:49:11;;;;;;;75.78;31.40;;;-2.90;99.90;;;;;;5074731;28;20405;-76
2021/01/02 01:51:57;;;;;;;83.57;32.80;;;-3.00;99.90;;;;;;5073084;28;20474;-76
2021/01/02 01:55:00;;;;;;;78.80;30.52;;;-2.90;99.90;;;;;;5072644;28;20035;-76
2021/01/02 01:57:27;;;;;;;73.38;28.92;;;-2.90;99.90;;;;;;5073609;28;20025;-76
2021/01/02 01:59:58;;;;;;;90.32;33.50;;;-2.90;99.90;;;;;;5074019;28;20024;-76
2021/01/02 02:02:44;;;;;;;83.68;31.92;;;-2.90;99.90;;;;;;5077598;28;20045;-75
2021/01/02 02:05:16;;;;;;;84.85;33.33;;;-2.90;99.90;;;;;;5079515;28;20043;-76
2021/01/02 02:08:00;;;;;;;84.28;30.52;;;-2.90;99.90;;;;;;5092851;28;20477;-76
2021/01/02 02:10:33;;;;;;;74.32;30.95;;;-2.90;99.90;;;;;;5092291;28;20055;-76
2021/01/02 02:13:00;;;;;;;78.65;32.58;;;-2.90;99.90;;;;;;5092684;28;20081;-76
2021/01/02 02:15:29;;;;;;;101.60;36.50;;;-2.90;99.90;;;;;;5092651;28;20062;-76
2021/01/02 02:18:05;;;;;;;84.22;32.08;;;-2.90;99.90;;;;;;5086958;28;20075;-76
2021/01/02 02:20:32;;;;;;;84.55;30.55;;;-2.90;99.90;;;;;;5071978;28;20043;-75
2021/01/02 02:23:08;;;;;;;70.80;31.10;;;-2.80;99.90;;;;;;5072392;28;20493;-76
2021/01/02 02:26:02;;;;;;;80.00;34.17;;;-2.80;99.90;;;;;;5073838;28;20025;-75
2021/01/02 02:28:46;;;;;;;81.97;33.00;;;-2.70;99.90;;;;;;5071952;28;20021;-76
2021/01/02 02:31:15;;;;;;;72.78;29.85;;;-2.60;99.90;;;;;;5088867;28;20047;-77
2021/01/02 02:33:54;;;;;;;81.45;30.10;;;-2.60;99.90;;;;;;5090483;28;20040;-77
2021/01/02 02:36:20;;;;;;;71.38;30.35;;;-2.50;99.90;;;;;;5092755;28;20044;-75
2021/01/02 02:38:46;;;;;;;85.35;35.38;;;-2.50;99.90;;;;;;5093293;28;20570;-77
2021/01/02 02:41:15;;;;;;;77.10;33.45;;;-2.40;99.90;;;;;;5092238;28;20020;-77
2021/01/02 02:43:42;;;;;;;80.03;31.60;;;-2.30;99.90;;;;;;5075340;28;20028;-77
2021/01/02 02:46:12;;;;;;;90.13;36.70;;;-2.20;99.90;;;;;;5091422;28;20035;-77
2021/01/02 02:48:42;;;;;;;81.20;36.03;;;-2.20;99.90;;;;;;5080555;28;20378;-77
2021/01/02 02:51:09;;;;;;;87.15;34.13;;;-2.10;99.90;;;;;;5072056;28;20036;-77
2021/01/02 02:53:36;;;;;;;88.18;33.78;;;-2.10;99.90;;;;;;5071604;28;20017;-77
2021/01/02 02:56:02;;;;;;;77.05;33.28;;;-2.00;99.90;;;;;;5070766;28;20070;-77
2021/01/02 02:58:29;;;;;;;73.13;34.60;;;-2.00;99.90;;;;;;5071703;28;20108;-77
2021/01/02 03:00:55;;;;;;;85.80;31.63;;;-2.00;99.90;;;;;;5071778;28;20029;-77
2021/01/02 03:03:21;;;;;;;75.35;31.45;;;-2.00;99.90;;;;;;5071095;28;20513;-77
2021/01/02 03:05:48;;;;;;;82.30;33.28;;;-1.90;99.90;;;;;;5073222;28;20032;-77
2021/01/02 03:08:15;;;;;;;73.68;32.75;;;-1.90;99.90;;;;;;5070895;28;20078;-77
2021/01/02 03:10:43;;;;;;;69.38;30.52;;;-1.90;99.90;;;;;;5072844;28;20036;-77
2021/01/02 03:13:09;;;;;;;59.90;26.70;;;-1.80;99.90;;;;;;5072467;28;20016;-77
2021/01/02 03:15:39;;;;;;;69.35;27.70;;;-1.80;99.90;;;;;;5071479;28;20023;-77
2021/01/02 03:18:05;;;;;;;80.15;30.73;;;-1.80;99.90;;;;;;5077596;28;20024;-77
2021/01/02 03:20:31;;;;;;;72.47;31.10;;;-1.80;99.90;;;;;;5069063;28;20111;-77
2021/01/02 03:22:57;;;;;;;74.18;31.95;;;-1.70;99.90;;;;;;5070872;28;20111;-76
2021/01/02 03:25:23;;;;;;;71.55;29.00;;;-1.70;99.90;;;;;;5071204;28;20024;-76
2021/01/02 03:27:52;;;;;;;74.57;30.48;;;-1.60;99.90;;;;;;5072366;28;20035;-77
2021/01/02 03:30:18;;;;;;;79.97;31.20;;;-1.60;99.90;;;;;;5083416;28;20118;-76
2021/01/02 03:32:44;;;;;;;66.65;27.75;;;-1.60;99.90;;;;;;5088060;28;20020;-76
2021/01/02 03:35:11;;;;;;;70.63;30.52;;;-1.60;99.90;;;;;;5071443;28;20031;-76
2021/01/02 03:37:39;;;;;;;74.72;29.95;;;-1.50;99.90;;;;;;5070926;28;20020;-76
2021/01/02 03:40:06;;;;;;;69.57;31.13;;;-1.50;99.90;;;;;;5071057;28;20039;-76
2021/01/02 03:42:39;;;;;;;69.35;30.45;;;-1.50;99.90;;;;;;5070675;28;20035;-76
2021/01/02 03:45:06;;;;;;;62.90;29.00;;;-1.40;99.90;;;;;;5070738;28;20066;-76
2021/01/02 03:47:32;;;;;;;75.03;29.83;;;-1.40;99.90;;;;;;5070946;28;20111;-77
2021/01/02 03:49:58;;;;;;;73.72;30.67;;;-1.40;99.90;;;;;;5077957;28;20036;-77
2021/01/02 03:52:26;;;;;;;65.55;28.65;;;-1.40;99.90;;;;;;5090939;28;20081;-77
2021/01/02 03:54:52;;;;;;;62.10;28.70;;;-1.40;99.90;;;;;;5090362;28;20039;-77
2021/01/02 03:57:18;;;;;;;68.40;28.75;;;-1.30;99.90;;;;;;5091876;28;20528;-77
2021/01/02 03:59:43;;;;;;;69.53;27.48;;;-1.30;99.90;;;;;;5091051;28;20134;-77
2021/01/02 04:02:09;;;;;;;66.88;28.60;;;-1.30;99.90;;;;;;5090841;28;20389;-77
2021/01/02 04:04:34;;;;;;;64.43;27.85;;;-1.30;99.90;;;;;;5090315;28;20024;-77
2021/01/02 04:07:04;;;;;;;64.35;26.42;;;-1.20;99.90;;;;;;5092146;28;20054;-77
2021/01/02 04:09:30;;;;;;;60.10;26.55;;;-1.20;99.90;;;;;;5090842;28;20362;-77
2021/01/02 04:11:56;;;;;;;59.67;26.25;;;-1.20;99.90;;;;;;5090798;28;20046;-77
2021/01/02 04:14:22;;;;;;;65.18;29.13;;;-1.10;99.90;;;;;;5090655;28;20024;-77
2021/01/02 04:16:48;;;;;;;60.63;27.13;;;-1.10;99.90;;;;;;5090652;28;20020;-77
2021/01/02 04:19:14;;;;;;;60.75;26.33;;;-1.10;99.90;;;;;;5074380;28;20028;-76
2021/01/02 04:21:40;;;;;;;59.63;26.77;;;-1.10;99.90;;;;;;5071841;28;20025;-76
2021/01/02 04:24:06;;;;;;;64.90;27.52;;;-1.00;99.90;;;;;;5070464;28;20029;-76
2021/01/02 04:26:33;;;;;;;60.15;27.50;;;-1.00;99.90;;;;;;5073913;28;20025;-77
2021/01/02 04:28:59;;;;;;;68.70;26.58;;;-1.00;99.90;;;;;;5073443;28;20472;-76
2021/01/02 04:31:38;;;;;;;61.65;26.55;;;-0.90;99.90;;;;;;5075101;28;20020;-76
2021/01/02 04:34:05;;;;;;;66.95;27.15;;;-0.90;99.90;;;;;;5074579;28;20020;-76
2021/01/02 04:36:32;;;;;;;99.68;41.20;;;-0.90;99.90;;;;;;5074903;28;20107;-76
2021/01/02 04:38:58;;;;;;;65.63;29.95;;;-0.80;99.90;;;;;;5073879;28;20020;-76
2021/01/02 04:41:23;;;;;;;58.58;23.27;;;-0.80;99.90;;;;;;5075006;28;20021;-76
2021/01/02 04:43:51;;;;;;;53.55;27.60;;;-0.80;99.90;;;;;;5074135;28;20020;-77
2021/01/02 04:46:17;;;;;;;63.03;24.23;;;-0.80;99.90;;;;;;5075194;28;20060;-77
2021/01/02 04:48:45;;;;;;;63.85;28.02;;;-0.80;99.90;;;;;;5075559;28;20486;-77
2021/01/02 04:51:11;;;;;;;61.50;26.30;;;-0.70;99.90;;;;;;5091261;28;20031;-77
2021/01/02 04:53:37;;;;;;;71.45;28.65;;;-0.70;99.90;;;;;;5094051;28;20012;-77
2021/01/02 04:56:05;;;;;;;48.55;24.33;;;-0.60;99.90;;;;;;5095649;28;20433;-77
2021/01/02 04:58:34;;;;;;;51.17;23.15;;;-0.60;99.90;;;;;;5093969;28;20148;-77
2021/01/02 05:01:03;;;;;;;56.88;23.85;;;-0.60;99.90;;;;;;5096055;28;20378;-77
2021/01/02 05:03:31;;;;;;;62.80;25.98;;;-0.60;99.90;;;;;;5093539;28;20023;-77
2021/01/02 05:05:56;;;;;;;50.25;23.05;;;-0.50;99.90;;;;;;5093714;28;20034;-77
2021/01/02 05:08:22;;;;;;;47.17;22.02;;;-0.50;99.90;;;;;;5094175;28;20028;-77
2021/01/02 05:11:15;;;;;;;44.67;21.50;;;-0.50;99.90;;;;;;5093863;28;20043;-77
2021/01/02 05:13:40;;;;;;;49.47;22.05;;;-0.50;99.90;;;;;;5092241;28;20062;-77
2021/01/02 05:16:21;;;;;;;53.88;23.42;;;-0.50;99.90;;;;;;5094081;28;20036;-77
2021/01/02 05:19:15;;;;;;;68.10;27.20;;;-0.50;99.90;;;;;;5080300;28;20031;-77
2021/01/02 05:21:47;;;;;;;68.55;28.15;;;-0.50;99.90;;;;;;5094781;28;20446;-77
2021/01/02 05:24:20;;;;;;;73.40;28.93;;;-0.50;99.90;;;;;;5093851;28;20067;-77
2021/01/02 05:26:56;;;;;;;61.67;27.60;;;-0.50;99.90;;;;;;5093599;28;20043;-77
2021/01/02 05:29:27;;;;;;;65.13;28.73;;;-0.50;99.90;;;;;;5094734;28;20116;-77
2021/01/02 05:31:54;;;;;;;67.43;29.73;;;-0.50;99.90;;;;;;5084657;28;20355;-76
2021/01/02 05:34:24;;;;;;;66.50;29.05;;;-0.50;99.90;;;;;;5073466;28;20394;-77
2021/01/02 05:37:01;;;;;;;72.90;29.63;;;-0.50;99.90;;;;;;5072861;28;20025;-77
2021/01/02 05:39:49;;;;;;;64.13;27.30;;;-0.50;99.90;;;;;;5073336;28;20035;-77
2021/01/02 05:42:16;;;;;;;61.50;27.38;;;-0.60;99.90;;;;;;5072925;28;20024;-77
2021/01/02 05:44:42;;;;;;;69.18;30.67;;;-0.60;99.90;;;;;;5072900;28;20064;-77
2021/01/02 05:47:12;;;;;;;68.85;31.95;;;-0.60;99.90;;;;;;5072830;28;20052;-77
2021/01/02 05:49:40;;;;;;;94.30;36.00;;;-0.60;99.90;;;;;;5073097;28;20044;-77
2021/01/02 05:52:11;;;;;;;61.08;28.02;;;-0.60;99.90;;;;;;5092873;28;20020;-77
2021/01/02 05:54:57;;;;;;;72.15;27.98;;;-0.60;99.90;;;;;;5093438;28;20080;-77
2021/01/02 05:57:27;;;;;;;54.40;27.92;;;-0.50;99.90;;;;;;5092342;28;20032;-77
2021/01/02 05:59:54;;;;;;;58.53;26.67;;;-0.60;99.90;;;;;;5092664;28;20020;-77
2021/01/02 06:02:31;;;;;;;53.60;26.27;;;-0.60;99.90;;;;;;5093100;28;20073;-77
2021/01/02 06:05:08;;;;;;;57.60;26.02;;;-0.50;99.90;;;;;;5094090;28;20032;-77
2021/01/02 06:07:39;;;;;;;71.07;30.60;;;-0.50;99.90;;;;;;5092714;28;20062;-76
2021/01/02 06:10:06;;;;;;;50.50;23.00;;;-0.50;99.90;;;;;;5092141;28;20035;-76
2021/01/02 06:12:34;;;;;;;79.38;31.88;;;-0.50;99.90;;;;;;5092746;28;20016;-77
2021/01/02 06:15:03;;;;;;;57.55;27.15;;;-0.50;99.90;;;;;;5093964;28;20475;-77
2021/01/02 06:17:33;;;;;;;63.17;27.88;;;-0.50;99.90;;;;;;5078912;28;20061;-77
2021/01/02 06:20:10;;;;;;;45.22;22.25;;;-0.40;99.90;;;;;;5073887;28;20397;-77
2021/01/02 06:22:37;;;;;;;56.63;22.38;;;-0.40;99.90;;;;;;5072312;28;20025;-77
2021/01/02 06:25:05;;;;;;;56.60;24.45;;;-0.40;99.90;;;;;;5072204;28;20432;-78
2021/01/02 06:27:31;;;;;;;50.08;23.48;;;-0.40;99.90;;;;;;5071956;28;20021;-77
2021/01/02 06:29:59;;;;;;;55.53;25.02;;;-0.40;99.90;;;;;;5072057;28;20043;-78
2021/01/02 06:32:26;;;;;;;58.22;24.83;;;-0.40;99.90;;;;;;5086811;28;20165;-77
2021/01/02 06:35:11;;;;;;;55.85;24.10;;;-0.40;99.90;;;;;;5087420;28;20942;-78
2021/01/02 06:37:51;;;;;;;52.88;22.92;;;-0.40;99.90;;;;;;5091475;28;20070;-78
2021/01/02 06:40:22;;;;;;;50.42;22.98;;;-0.30;99.90;;;;;;5089126;28;20024;-77
2021/01/02 06:42:55;;;;;;;49.50;23.45;;;-0.30;99.90;;;;;;5087068;28;20111;-78
2021/01/02 06:45:35;;;;;;;55.85;23.95;;;-0.30;99.90;;;;;;5089583;28;20524;-78
2021/01/02 06:48:16;;;;;;;53.78;24.95;;;-0.30;99.90;;;;;;5089382;28;20086;-77
2021/01/02 06:50:52;;;;;;;49.38;23.40;;;-0.30;99.90;;;;;;5092192;28;20093;-78
2021/01/02 06:53:22;;;;;;;48.22;21.38;;;-0.30;99.90;;;;;;5092796;28;20447;-78
2021/01/02 06:56:10;;;;;;;49.55;23.27;;;-0.30;99.90;;;;;;5087696;28;20492;-78
2021/01/02 06:58:38;;;;;;;48.90;22.58;;;-0.30;99.90;;;;;;5090758;28;20052;-78
2021/01/02 07:01:09;;;;;;;53.88;23.63;;;-0.30;99.90;;;;;;5089704;28;20020;-78
2021/01/02 07:03:41;;;;;;;55.65;22.25;;;-0.30;99.90;;;;;;5090418;28;20034;-78
2021/01/02 07:06:24;;;;;;;43.70;23.60;;;-0.30;99.90;;;;;;5092277;28;20059;-77
2021/01/02 07:09:01;;;;;;;49.95;23.10;;;-0.20;99.90;;;;;;5090265;28;20046;-77
2021/01/02 07:11:49;;;;;;;52.28;22.52;;;-0.20;99.90;;;;;;5090948;28;20115;-77
2021/01/02 07:14:19;;;;;;;52.67;23.85;;;-0.20;99.90;;;;;;5092092;28;20024;-77
2021/01/02 07:16:56;;;;;;;46.72;21.77;;;-0.20;99.90;;;;;;5091199;28;20091;-76
2021/01/02 07:19:30;;;;;;;47.35;21.63;;;-0.20;99.90;;;;;;5083859;28;20032;-77
2021/01/02 07:22:00;;;;;;;46.50;22.15;;;-0.20;99.90;;;;;;5090970;28;20097;-76
2021/01/02 07:24:31;;;;;;;52.20;24.67;;;-0.10;99.90;;;;;;5094952;28;20513;-78
2021/01/02 07:27:00;;;;;;;57.13;23.65;;;-0.10;99.90;;;;;;5091778;28;20016;-77
2021/01/02 07:29:28;;;;;;;54.28;23.75;;;-0.10;99.90;;;;;;5093573;28;20062;-77
2021/01/02 07:32:07;;;;;;;51.35;22.80;;;-0.10;99.90;;;;;;5089569;28;20385;-77
2021/01/02 07:34:33;;;;;;;56.85;26.67;;;-0.10;99.90;;;;;;5090476;28;20062;-77
2021/01/02 07:37:07;;;;;;;54.67;23.27;;;-0.10;99.90;;;;;;5093441;28;20023;-76
2021/01/02 07:39:33;;;;;;;55.30;23.45;;;-0.10;99.90;;;;;;5085190;28;20046;-77
2021/01/02 07:42:06;;;;;;;50.22;23.23;;;-0.10;99.90;;;;;;5090596;28;20105;-77
2021/01/02 07:44:32;;;;;;;;;;;0.00;99.90;;;;;;5090803;28;20031;-77
2021/01/02 07:46:58;;;;;;;52.05;25.95;;;0.00;99.90;;;;;;5089601;28;20041;-77
2021/01/02 07:49:23;;;;;;;50.78;24.08;;;0.00;99.90;;;;;;5086437;28;20073;-77
2021/01/02 07:51:50;;;;;;;49.40;24.45;;;0.00;99.90;;;;;;5089201;28;20023;-77
2021/01/02 07:54:33;;;;;;;51.50;22.88;;;0.10;99.90;;;;;;5085982;28;20024;-77
2021/01/02 07:57:00;;;;;;;51.47;21.88;;;0.20;99.90;;;;;;5084303;28;20028;-76
2021/01/02 07:59:29;;;;;;;44.83;22.17;;;0.10;99.90;;;;;;5088538;28;20035;-77
2021/01/02 08:02:01;;;;;;;41.15;20.20;;;0.10;99.90;;;;;;5088609;28;20024;-77
2021/01/02 08:04:31;;;;;;;44.00;21.27;;;0.20;99.90;;;;;;5085602;28;20103;-76
2021/01/02 08:06:58;;;;;;;49.47;21.10;;;0.20;99.90;;;;;;5086707;28;20161;-77
2021/01/02 08:09:25;;;;;;;49.17;21.52;;;0.20;99.90;;;;;;5086866;28;20119;-77
2021/01/02 08:11:54;;;;;;;49.13;22.50;;;0.30;99.90;;;;;;5070045;28;20193;-77
2021/01/02 08:14:20;;;;;;;62.97;23.27;;;0.30;99.90;;;;;;5070179;28;20048;-77
2021/01/02 08:17:04;;;;;;;50.08;23.08;;;0.40;99.90;;;;;;5071823;28;20052;-78
2021/01/02 08:19:55;;;;;;;49.38;23.20;;;0.40;99.90;;;;;;5070269;28;20035;-77
2021/01/02 08:22:31;;;;;;;54.50;24.77;;;0.40;99.90;;;;;;5077238;28;20040;-77
2021/01/02 08:25:01;;;;;;;61.22;31.70;;;0.40;99.90;;;;;;5083872;28;20031;-78
2021/01/02 08:27:31;;;;;;;73.47;31.80;;;0.40;99.90;;;;;;5094652;28;20042;-77
2021/01/02 08:30:02;;;;;;;79.47;31.98;;;0.40;99.90;;;;;;5101939;28;20047;-77
2021/01/02 08:32:31;;;;;;;72.20;31.50;;;0.40;99.90;;;;;;5080240;28;20607;-77
2021/01/02 08:34:57;;;;;;;68.00;33.70;;;0.40;99.90;;;;;;5081414;28;20556;-77
2021/01/02 08:37:23;;;;;;;96.70;43.47;;;0.40;99.90;;;;;;5069871;28;20474;-77
2021/01/02 08:40:09;;;;;;;112.45;44.40;;;0.50;99.90;;;;;;5082646;28;20028;-78
2021/01/02 08:42:36;;;;;;;79.38;33.45;;;0.50;99.90;;;;;;5070437;28;20095;-76
2021/01/02 08:45:04;;;;;;;64.68;30.25;;;0.50;99.90;;;;;;5070334;28;20052;-76
2021/01/02 08:47:31;;;;;;;61.47;28.00;;;0.50;99.90;;;;;;5070077;28;20035;-76
2021/01/02 08:50:10;;;;;;;52.08;25.13;;;0.50;99.90;;;;;;5069647;28;20123;-76
2021/01/02 08:52:36;;;;;;;57.83;27.00;;;0.60;99.90;;;;;;5072316;28;20105;-76
2021/01/02 08:55:09;;;;;;;54.33;25.52;;;0.50;99.90;;;;;;5081667;28;20052;-76
2021/01/02 08:57:53;;;;;;;53.70;25.10;;;0.50;99.90;;;;;;5079396;28;20021;-76
2021/01/02 09:00:39;;;;;;;54.88;25.80;;;0.60;99.90;;;;;;5085305;28;20013;-76
2021/01/02 09:03:07;;;;;;;52.67;23.38;;;0.60;99.90;;;;;;5078762;28;20029;-75
2021/01/02 09:05:36;;;;;;;48.33;21.70;;;0.60;99.90;;;;;;5079163;28;20056;-76
2021/01/02 09:08:10;;;;;;;43.35;22.17;;;0.60;99.90;;;;;;5084197;28;20039;-78
2021/01/02 09:10:42;;;;;;;55.60;25.15;;;0.60;99.90;;;;;;5088178;28;20040;-75
2021/01/02 09:13:21;;;;;;;67.50;31.37;;;0.70;99.90;;;;;;5092449;28;20032;-76
2021/01/02 09:15:55;;;;;;;77.00;32.75;;;0.80;99.90;;;;;;5094349;28;20107;-76
2021/01/02 09:18:30;;;;;;;60.60;25.83;;;0.80;99.90;;;;;;5092822;28;20024;-75
2021/01/02 09:20:56;;;;;;;53.42;23.60;;;0.90;99.90;;;;;;5094781;28;20028;-76
2021/01/02 09:23:32;;;;;;;48.42;22.98;;;1.00;99.90;;;;;;5089695;28;20059;-76
2021/01/02 09:25:58;;;;;;;53.35;23.65;;;1.10;99.90;;;;;;5083937;28;20082;-76
2021/01/02 09:28:24;;;;;;;51.33;22.23;;;1.10;99.90;;;;;;5086137;28;20027;-76
2021/01/02 09:30:51;;;;;;;50.90;21.65;;;1.20;99.90;;;;;;5093633;28;20080;-77
2021/01/02 09:33:16;;;;;;;48.60;21.73;;;1.20;99.90;;;;;;5083071;28;20043;-76
2021/01/02 09:35:46;;;;;;;49.20;24.27;;;1.30;99.90;;;;;;5089709;28;20565;-76
2021/01/02 09:38:13;;;;;;;50.33;24.83;;;1.30;99.90;;;;;;5093724;28;20500;-76
2021/01/02 09:40:41;;;;;;;55.45;25.38;;;1.30;99.90;;;;;;5090331;28;20488;-77
2021/01/02 09:43:10;;;;;;;59.33;29.27;;;1.30;99.90;;;;;;5091153;28;20024;-76
2021/01/02 09:45:36;;;;;;;72.50;31.70;;;1.40;99.90;;;;;;5092917;28;20068;-76
2021/01/02 09:48:02;;;;;;;79.82;39.78;;;1.40;99.90;;;;;;5075616;28;20028;-77
2021/01/02 09:50:28;;;;;;;90.45;39.47;;;1.50;99.90;;;;;;5072618;28;20123;-76
2021/01/02 09:52:54;;;;;;;64.18;34.20;;;1.70;99.90;;;;;;5074089;28;20186;-76
2021/01/02 09:55:19;;;;;;;69.82;33.53;;;1.80;99.90;;;;;;5070135;28;20051;-76
2021/01/02 09:57:49;;;;;;;73.10;33.92;;;2.00;99.90;;;;;;5072279;28;20044;-76
2021/01/02 10:00:16;;;;;;;72.20;35.42;;;2.10;99.90;;;;;;5072138;28;20497;-76
2021/01/02 10:02:42;;;;;;;67.05;32.35;;;2.20;99.90;;;;;;5087799;28;20079;-74
2021/01/02 10:05:09;;;;;;;76.35;36.00;;;2.20;99.90;;;;;;5073729;28;20482;-74
2021/01/02 10:07:35;;;;;;;77.72;37.90;;;2.20;99.90;;;;;;5073657;28;20401;-74
2021/01/02 10:10:00;;;;;;;76.10;33.78;;;2.20;99.90;;;;;;5083564;28;20040;-75
2021/01/02 10:12:26;;;;;;;69.65;34.58;;;2.30;99.90;;;;;;5089696;28;20106;-74
2021/01/02 10:14:52;;;;;;;63.33;30.73;;;2.20;99.90;;;;;;5093241;28;20424;-74
2021/01/02 10:17:18;;;;;;;65.97;29.33;;;2.20;99.90;;;;;;5092688;28;20031;-74
2021/01/02 10:19:45;;;;;;;61.92;28.88;;;2.20;99.90;;;;;;5093692;28;20496;-74
2021/01/02 10:22:13;;;;;;;62.67;29.55;;;2.10;99.90;;;;;;5086629;28;20073;-75
2021/01/02 10:24:38;;;;;;;68.68;32.95;;;2.10;99.90;;;;;;5092706;28;20089;-74
2021/01/02 10:27:06;;;;;;;62.45;27.95;;;2.10;99.90;;;;;;5092482;28;20027;-74
2021/01/02 10:29:33;;;;;;;57.80;28.98;;;2.20;99.90;;;;;;5090989;28;20032;-74
2021/01/02 10:32:04;;;;;;;62.78;29.00;;;2.20;99.90;;;;;;5085907;28;20120;-74
2021/01/02 10:34:30;;;;;;;57.03;28.02;;;2.20;99.90;;;;;;5089058;28;20466;-73
2021/01/02 10:36:56;;;;;;;67.90;30.42;;;2.20;99.90;;;;;;5088913;28;20214;-75
2021/01/02 10:39:22;;;;;;;78.50;35.85;;;2.30;99.90;;;;;;5091796;28;20032;-75
2021/01/02 10:41:49;;;;;;;68.63;31.98;;;2.30;99.90;;;;;;5090380;28;20030;-74
2021/01/02 10:44:16;;;;;;;53.40;25.48;;;2.30;99.90;;;;;;5091210;28;20042;-75
2021/01/02 10:46:50;;;;;;;49.42;25.42;;;2.30;99.90;;;;;;5090792;28;20054;-74
2021/01/02 10:49:18;;;;;;;53.83;25.00;;;2.40;99.90;;;;;;5086148;28;20494;-73
2021/01/02 10:51:45;;;;;;;51.40;25.17;;;2.40;99.90;;;;;;5091493;28;20050;-76
2021/01/02 10:54:12;;;;;;;53.90;26.17;;;2.40;99.90;;;;;;5090374;28;20533;-74
2021/01/02 10:56:42;;;;;;;53.67;25.60;;;2.40;99.90;;;;;;5087053;28;20477;-75
2021/01/02 10:59:07;;;;;;;51.92;25.92;;;2.40;99.90;;;;;;5091685;28;20016;-75
2021/01/02 11:01:44;;;;;;;63.22;29.10;;;2.40;99.90;;;;;;5091637;28;20035;-75
2021/01/02 11:04:10;;;;;;;55.90;27.38;;;2.40;99.90;;;;;;5086302;28;20059;-75
2021/01/02 11:06:41;;;;;;;64.53;30.30;;;2.50;99.90;;;;;;5089989;28;20378;-75
2021/01/02 11:09:09;;;;;;;64.25;30.92;;;2.50;99.90;;;;;;5089989;28;20070;-75
2021/01/02 11:11:35;;;;;;;62.10;29.90;;;2.50;99.90;;;;;;5090293;28;20542;-75
2021/01/02 11:14:01;;;;;;;60.53;27.35;;;2.50;99.90;;;;;;5089440;28;20031;-75
2021/01/02 11:16:31;;;;;;;65.88;31.08;;;2.50;99.90;;;;;;5091454;28;20053;-75
2021/01/02 11:18:57;;;;;;;69.30;32.03;;;2.60;99.90;;;;;;5085040;28;20039;-74
2021/01/02 11:21:23;;;;;;;70.10;33.55;;;2.60;99.90;;;;;;5089564;28;20016;-75
2021/01/02 11:23:48;;;;;;;87.97;37.47;;;2.60;99.90;;;;;;5089838;28;20135;-75
2021/01/02 11:26:17;;;;;;;72.90;33.83;;;2.60;99.90;;;;;;5091663;28;20024;-75
2021/01/02 11:28:43;;;;;;;66.97;30.42;;;2.60;99.90;;;;;;5089728;28;20024;-75
2021/01/02 11:31:11;;;;;;;67.07;30.08;;;2.60;99.90;;;;;;5089124;28;20363;-75
2021/01/02 11:33:37;;;;;;;61.67;28.75;;;2.70;99.90;;;;;;5086976;28;20368;-75
2021/01/02 11:36:03;;;;;;;74.07;30.45;;;2.60;99.90;;;;;;5091772;28;20490;-76
2021/01/02 11:38:32;;;;;;;58.83;28.13;;;2.70;99.90;;;;;;5090790;28;20028;-75
2021/01/02 11:40:58;;;;;;;57.67;27.83;;;2.70;99.90;;;;;;5091688;28;20036;-75
2021/01/02 11:43:24;;;;;;;62.70;29.05;;;2.70;99.90;;;;;;5090464;28;20028;-74
2021/01/02 11:45:49;;;;;;;73.20;33.33;;;2.70;99.90;;;;;;5090110;28;20074;-75
2021/01/02 11:48:15;;;;;;;63.60;29.23;;;2.70;99.90;;;;;;5088151;28;20431;-75
2021/01/02 11:50:42;;;;;;;58.90;29.08;;;2.70;99.90;;;;;;5089488;28;20127;-74
2021/01/02 11:53:09;;;;;;;60.20;27.90;;;2.70;99.90;;;;;;5088435;28;20055;-73
2021/01/02 11:55:37;;;;;;;55.45;27.25;;;2.70;99.90;;;;;;5087343;28;20028;-75
2021/01/02 11:58:03;;;;;;;48.63;24.73;;;2.80;99.90;;;;;;5091079;28;20492;-74
2021/01/02 12:00:30;;;;;;;56.47;25.15;;;2.80;99.90;;;;;;5084440;28;20029;-75
2021/01/02 12:02:57;;;;;;;53.40;24.58;;;2.80;99.90;;;;;;5082563;28;20028;-74
2021/01/02 12:05:23;;;;;;;48.55;23.90;;;2.80;99.90;;;;;;5080462;28;20034;-74
2021/01/02 12:07:49;;;;;;;53.22;25.40;;;2.90;99.90;;;;;;5070678;28;20119;-74
2021/01/02 12:10:16;;;;;;;57.80;24.20;;;2.90;99.90;;;;;;5071220;28;20040;-74
2021/01/02 12:12:41;;;;;;;49.17;24.40;;;3.00;99.90;;;;;;5071100;28;20048;-74
2021/01/02 12:15:08;;;;;;;47.00;22.05;;;3.10;99.90;;;;;;5070467;28;20052;-75
2021/01/02 12:17:33;;;;;;;50.30;25.45;;;3.10;99.90;;;;;;5074592;28;20023;-74
2021/01/02 12:20:00;;;;;;;52.47;24.75;;;3.20;99.90;;;;;;5091854;28;20033;-75
2021/01/02 12:22:28;;;;;;;66.95;23.80;;;3.30;99.90;;;;;;5090944;28;20032;-74
2021/01/02 12:24:53;;;;;;;43.35;22.02;;;3.30;99.90;;;;;;5091491;28;20028;-74
2021/01/02 12:27:19;;;;;;;60.03;23.70;;;3.30;99.90;;;;;;5089233;28;20031;-74
2021/01/02 12:29:45;;;;;;;47.90;23.13;;;3.30;99.90;;;;;;5091618;28;20044;-75
2021/01/02 12:32:11;;;;;;;49.20;23.20;;;3.30;99.90;;;;;;5091096;28;21082;-74
2021/01/02 12:34:39;;;;;;;63.60;23.73;;;3.30;99.90;;;;;;5090820;28;20101;-74
2021/01/02 12:37:10;;;;;;;47.80;21.60;;;3.20;99.90;;;;;;5091276;28;20421;-74
2021/01/02 12:39:37;;;;;;;51.63;21.77;;;3.20;99.90;;;;;;5072971;28;20044;-74
2021/01/02 12:42:03;;;;;;;54.25;24.92;;;3.20;99.90;;;;;;5071197;28;20074;-74
2021/01/02 12:44:29;;;;;;;52.88;24.40;;;3.20;99.90;;;;;;5070012;28;20542;-74
2021/01/02 12:47:01;;;;;;;56.65;25.02;;;3.10;99.90;;;;;;5072218;28;20062;-75